Track Грибанов Федор

Time Latitude Longitude Accuracy (66% radius in meters) Altitude (meters) Speed (km/hour) Bearing (degrees) Battery (%) GPS flag
11:41:18 55.929700 38.064026 0 0 0 0 1 delete
11:41:10 55.929670 38.064049 0 0 0 0 1 delete
11:41:04 55.929647 38.064057 0 0 0 0 1 delete
11:41:03 55.929642 38.064058 0 0 0 0 1 delete
11:40:46 55.929661 38.064112 0 0 0 0 1 delete
11:40:42 55.929653 38.064275 0 0 0 0 1 delete
11:40:40 55.929635 38.064340 0 0 0 0 1 delete
11:40:38 55.929623 38.064410 0 0 0 0 1 delete
11:40:30 55.929535 38.064724 0 0 0 0 1 delete
11:40:29 55.929527 38.064756 0 0 0 0 1 delete
11:40:25 55.929483 38.064748 0 0 0 0 1 delete
11:40:16 55.929297 38.064720 0 0 0 0 1 delete
11:40:09 55.929101 38.064646 0 0 0 0 1 delete
11:40:01 55.928928 38.064487 0 0 0 0 1 delete
11:40:00 55.928903 38.064471 0 0 0 0 1 delete
11:39:58 55.928857 38.064459 0 0 0 0 1 delete
11:39:46 55.928726 38.064228 0 0 0 0 1 delete
11:39:43 55.928706 38.064210 0 0 0 0 1 delete
11:39:27 55.928802 38.064026 0 0 0 0 1 delete
11:39:18 55.928730 38.064042 0 0 0 0 1 delete
11:39:17 55.928715 38.064041 0 0 0 0 1 delete
11:39:07 55.928598 38.064033 0 0 0 0 1 delete
11:38:55 55.928402 38.064070 0 0 0 0 1 delete
11:38:53 55.928387 38.064067 0 0 0 0 1 delete
11:38:48 55.928318 38.064053 0 0 0 0 1 delete
11:38:46 55.928287 38.064047 0 0 0 0 1 delete
11:38:43 55.928252 38.064052 0 0 0 0 1 delete
11:38:30 55.928110 38.063991 0 0 0 0 1 delete
11:38:16 55.927931 38.063826 0 0 0 0 1 delete
11:38:14 55.927921 38.063795 0 0 0 0 1 delete
11:38:06 55.927860 38.063807 0 0 0 0 1 delete
11:38:05 55.927850 38.063804 0 0 0 0 1 delete
11:37:59 55.927750 38.063787 0 0 0 0 1 delete
11:37:49 55.927590 38.063628 0 0 0 0 1 delete
11:37:39 55.927614 38.063316 0 0 0 0 1 delete
11:37:23 55.927486 38.063200 0 0 0 0 1 delete
11:37:14 55.927292 38.063290 0 0 0 0 1 delete
11:37:05 55.927103 38.063255 0 0 0 0 1 delete
11:36:57 55.926917 38.063133 0 0 0 0 1 delete
11:36:49 55.926725 38.063049 0 0 0 0 1 delete
11:36:42 55.926534 38.063146 0 0 0 0 1 delete
11:36:41 55.926513 38.063143 0 0 0 0 1 delete
11:36:35 55.926398 38.063138 0 0 0 0 1 delete
11:36:23 55.926279 38.063397 0 0 0 0 1 delete
11:36:14 55.926161 38.063656 0 0 0 0 1 delete
11:36:04 55.925990 38.063731 0 0 0 0 1 delete
11:36:03 55.925981 38.063737 0 0 0 0 1 delete
11:35:58 55.925904 38.063822 0 0 0 0 1 delete
11:35:57 55.925884 38.063839 0 0 0 0 1 delete
11:35:56 55.925860 38.063857 0 0 0 0 1 delete